Webcam Richtung Westen

Webcam27

Webcam Richtung Norden

Webcam36

Webcam Richtung Osten

Webcam09

Wetter(Würzburg):
121830Z AUTO 32007G11KT 75KM BKN072 BKN092 05/M03 Q1028
		
Mon 12.04.2021, 18:30 UTC

Sichtweite bis zu 75 km
Wind aus 320° mit 07kt, in Böen bis zu 11kt
unterbrochene Wolkendecke (5-7 Achtel) bei 7200 Fuß
unterbrochene Wolkendecke (5-7 Achtel) bei 9200 Fuß
Temperatur: 5 °C
Taupunkt: -3 °C
QNH: 1028 hPa
                         Heute        Morgen
                         12.04        13.04
--------------------------------------------
Beginn der Dämmerung     04:00        03:58
Sonnenaufgang            04:34        04:32
Sonnenuntergang          18:08        18:10
Ende der Dämmerung       18:42        18:43

Alle Zeiten in UTC